createdAt,value
2022-10-01T00:01:22.889Z,101131.25
2022-10-01T00:04:16.524Z,101117.13
2022-10-01T00:07:10.669Z,101123.19
2022-10-01T00:10:00.146Z,101123.34
2022-10-01T00:12:52.300Z,101135.41
2022-10-01T00:15:42.247Z,101133.19
2022-10-01T00:18:32.319Z,101134.88
2022-10-01T00:21:30.090Z,101138.19
2022-10-01T00:24:20.314Z,101142.16
2022-10-01T00:27:11.570Z,101144.34
2022-10-01T00:30:02.191Z,101141.47
2022-10-01T00:32:56.188Z,101141.97
2022-10-01T00:35:45.691Z,101147.84
2022-10-01T00:38:36.028Z,101148.19
2022-10-01T00:41:27.663Z,101152.88
2022-10-01T00:44:35.164Z,101155.53
2022-10-01T00:47:36.073Z,101153.31
2022-10-01T00:50:34.752Z,101149.44
2022-10-01T00:53:26.791Z,101155.84
2022-10-01T00:56:16.491Z,101156.41
2022-10-01T00:59:08.171Z,101161.59
2022-10-01T01:01:57.847Z,101156.34
2022-10-01T01:04:49.237Z,101163.25
2022-10-01T01:07:40.327Z,101158.69
2022-10-01T01:10:45.080Z,101153.44
2022-10-01T01:13:44.486Z,101152.47
2022-10-01T01:16:43.067Z,101159.69
2022-10-01T01:19:45.983Z,101154.00
2022-10-01T01:22:38.846Z,101158.22
2022-10-01T01:25:53.992Z,101149.44
2022-10-01T01:28:53.281Z,101137.25
2022-10-01T01:31:47.335Z,101135.94
2022-10-01T01:34:38.216Z,101139.28
2022-10-01T01:37:32.866Z,101144.69
2022-10-01T01:40:24.663Z,101139.13
2022-10-01T01:43:21.429Z,101139.53
2022-10-01T01:46:13.276Z,101139.53
2022-10-01T01:49:05.368Z,101144.81
2022-10-01T01:52:05.706Z,101136.72
2022-10-01T01:54:58.484Z,101123.88
2022-10-01T01:57:48.135Z,101129.75
2022-10-01T02:00:38.553Z,101128.91
2022-10-01T02:03:32.249Z,101124.19
2022-10-01T02:06:37.746Z,101118.59
2022-10-01T02:09:59.569Z,101119.25
2022-10-01T02:12:55.883Z,101111.69
2022-10-01T02:15:53.508Z,101118.00
2022-10-01T02:19:02.128Z,101123.59
2022-10-01T02:22:02.503Z,101117.16
2022-10-01T02:24:54.558Z,101116.88
2022-10-01T02:27:52.997Z,101107.38
2022-10-01T02:30:47.793Z,101103.91
2022-10-01T02:33:38.215Z,101101.53
2022-10-01T02:36:29.066Z,101107.75
2022-10-01T02:39:19.679Z,101104.56
2022-10-01T02:42:11.663Z,101093.94
2022-10-01T02:45:05.512Z,101090.19
2022-10-01T02:48:19.122Z,101092.72
2022-10-01T02:51:40.709Z,101096.81
2022-10-01T02:54:48.452Z,101093.09
2022-10-01T02:57:39.017Z,101087.00
2022-10-01T03:00:29.658Z,101080.38
2022-10-01T03:03:20.077Z,101076.28
2022-10-01T03:06:10.374Z,101069.69
2022-10-01T03:09:01.019Z,101072.41
2022-10-01T03:11:50.361Z,101067.66
2022-10-01T03:14:47.732Z,101065.16
2022-10-01T03:17:38.163Z,101059.91
2022-10-01T03:20:27.880Z,101050.31
2022-10-01T03:23:18.794Z,101056.31
2022-10-01T03:26:09.398Z,101052.75
2022-10-01T03:28:59.465Z,101046.19
2022-10-01T03:31:51.477Z,101044.03
2022-10-01T03:34:41.315Z,101035.81
2022-10-01T03:37:31.665Z,101030.09
2022-10-01T03:40:21.483Z,101021.16
2022-10-01T03:43:11.394Z,101015.19
2022-10-01T03:46:05.682Z,101011.47
2022-10-01T03:48:58.719Z,101017.00
2022-10-01T03:51:51.954Z,101002.03
2022-10-01T03:54:41.467Z,101011.38
2022-10-01T03:57:31.523Z,100991.22
2022-10-01T04:00:21.617Z,100990.84
2022-10-01T04:03:12.292Z,100980.41
2022-10-01T04:06:01.669Z,100974.94
2022-10-01T04:08:51.535Z,100967.28
2022-10-01T04:11:41.668Z,100967.53
2022-10-01T04:14:31.429Z,100959.81
2022-10-01T04:17:23.960Z,100959.16
2022-10-01T04:20:14.062Z,100942.88
2022-10-01T04:23:05.836Z,100949.88
2022-10-01T04:25:55.837Z,100955.66
2022-10-01T04:28:48.258Z,100942.03
2022-10-01T04:31:38.606Z,100937.28
2022-10-01T04:34:49.328Z,100938.69
2022-10-01T04:37:39.328Z,100937.41
2022-10-01T04:40:30.078Z,100931.38
2022-10-01T04:43:19.735Z,100928.41
2022-10-01T04:46:12.686Z,100936.34
2022-10-01T04:49:02.013Z,100916.91
2022-10-01T04:51:51.083Z,100909.09
2022-10-01T04:54:40.771Z,100904.06
2022-10-01T04:57:31.084Z,100893.81
2022-10-01T05:00:25.382Z,100885.94
2022-10-01T05:03:15.883Z,100891.44
2022-10-01T05:06:07.989Z,100889.78
2022-10-01T05:08:58.693Z,100894.41
2022-10-01T05:11:52.980Z,100884.47
2022-10-01T05:14:43.023Z,100855.34
2022-10-01T05:17:34.066Z,100848.34
2022-10-01T05:20:31.039Z,100842.06
2022-10-01T05:23:20.828Z,100842.59
2022-10-01T05:26:11.375Z,100856.44
2022-10-01T05:29:04.472Z,100855.56
2022-10-01T05:31:55.346Z,100847.63
2022-10-01T05:34:46.360Z,100838.00
2022-10-01T05:37:38.607Z,100858.63
2022-10-01T05:40:31.939Z,100876.03
2022-10-01T05:43:21.787Z,100877.91
2022-10-01T05:46:14.202Z,100878.13
2022-10-01T05:49:03.775Z,100856.22
2022-10-01T05:51:54.789Z,100831.56
2022-10-01T05:54:44.502Z,100840.31
2022-10-01T05:57:35.196Z,100854.38
2022-10-01T06:00:25.490Z,100852.06
2022-10-01T06:03:16.206Z,100851.81
2022-10-01T06:06:09.853Z,100849.22
2022-10-01T06:09:01.387Z,100849.22
2022-10-01T06:11:51.517Z,100859.56
2022-10-01T06:14:42.220Z,100850.38
2022-10-01T06:17:35.148Z,100843.53
2022-10-01T06:20:25.657Z,100835.16
2022-10-01T06:23:16.043Z,100850.66
2022-10-01T06:26:08.094Z,100859.03
2022-10-01T06:28:58.403Z,100855.25
2022-10-01T06:31:48.625Z,100846.94
2022-10-01T06:34:38.691Z,100839.28
2022-10-01T06:37:28.496Z,100834.84
2022-10-01T06:40:18.234Z,100831.88
2022-10-01T06:43:09.347Z,100841.22
2022-10-01T06:46:02.326Z,100844.47
2022-10-01T06:48:52.784Z,100836.00
2022-10-01T06:52:03.141Z,100845.91
2022-10-01T06:54:53.297Z,100842.16
2022-10-01T06:57:43.802Z,100842.16
2022-10-01T07:00:36.473Z,100839.22
2022-10-01T07:03:26.879Z,100846.94
2022-10-01T07:06:16.688Z,100841.72
2022-10-01T07:09:07.164Z,100835.47
2022-10-01T07:11:58.286Z,100831.28
2022-10-01T07:14:48.880Z,100832.59
2022-10-01T07:17:49.876Z,100824.50
2022-10-01T07:20:42.577Z,100827.72
2022-10-01T07:23:32.566Z,100816.09
2022-10-01T07:26:22.154Z,100823.56
2022-10-01T07:29:12.843Z,100828.75
2022-10-01T07:32:05.095Z,100826.06
2022-10-01T07:34:57.592Z,100826.25
2022-10-01T07:37:50.222Z,100828.50
2022-10-01T07:40:43.196Z,100832.88
2022-10-01T07:43:37.644Z,100831.66
2022-10-01T07:46:34.495Z,100837.25
2022-10-01T07:49:28.621Z,100835.19
2022-10-01T07:52:18.565Z,100838.53
2022-10-01T07:55:12.021Z,100831.75
2022-10-01T07:58:05.148Z,100831.47
2022-10-01T08:00:59.331Z,100839.69
2022-10-01T08:03:54.591Z,100834.28
2022-10-01T08:06:45.931Z,100822.22
2022-10-01T08:09:39.564Z,100823.06
2022-10-01T08:12:31.446Z,100822.22
2022-10-01T08:15:21.431Z,100823.91
2022-10-01T08:18:12.318Z,100820.56
2022-10-01T08:21:05.644Z,100825.94
2022-10-01T08:23:57.157Z,100818.88
2022-10-01T08:26:47.131Z,100825.56
2022-10-01T08:29:39.581Z,100824.94
2022-10-01T08:32:31.962Z,100834.31
2022-10-01T08:35:24.465Z,100824.34
2022-10-01T08:38:15.508Z,100819.78
2022-10-01T08:41:34.627Z,100823.59
2022-10-01T08:44:38.429Z,100819.53
2022-10-01T08:47:38.898Z,100819.53
2022-10-01T08:50:42.931Z,100821.19
2022-10-01T08:53:42.655Z,100817.19
2022-10-01T08:56:50.495Z,100818.09
2022-10-01T08:59:44.869Z,100824.16
2022-10-01T09:02:36.955Z,100821.84
2022-10-01T09:05:45.013Z,100835.34
2022-10-01T09:09:09.019Z,100832.66
2022-10-01T09:12:20.836Z,100824.94
2022-10-01T09:15:28.992Z,100843.47
2022-10-01T09:18:37.645Z,100845.91
2022-10-01T09:21:48.489Z,100845.59
2022-10-01T09:24:51.828Z,100851.22
2022-10-01T09:27:43.929Z,100850.75
2022-10-01T09:30:35.728Z,100843.13
2022-10-01T09:33:32.310Z,100854.47
2022-10-01T09:36:26.381Z,100852.81
2022-10-01T09:39:22.095Z,100850.50
2022-10-01T09:42:11.931Z,100860.91
2022-10-01T09:45:01.895Z,100866.06
2022-10-01T09:47:55.086Z,100867.84
2022-10-01T09:50:56.536Z,100858.72
2022-10-01T09:54:04.715Z,100860.28
2022-10-01T09:57:10.553Z,100858.69
2022-10-01T10:00:09.043Z,100855.34
2022-10-01T10:02:59.033Z,100856.16
2022-10-01T10:05:50.338Z,100871.06
2022-10-01T10:08:41.292Z,100876.03
2022-10-01T10:11:35.181Z,100881.22
2022-10-01T10:14:37.131Z,100891.41
2022-10-01T10:17:27.550Z,100889.72
2022-10-01T10:20:30.250Z,100888.91
2022-10-01T10:23:27.098Z,100893.13
2022-10-01T10:26:29.470Z,100894.53
2022-10-01T10:29:33.525Z,100899.91
2022-10-01T10:32:30.422Z,100893.31
2022-10-01T10:35:26.221Z,100903.69
2022-10-01T10:38:23.915Z,100909.09
2022-10-01T10:41:20.807Z,100916.97
2022-10-01T10:44:16.621Z,100925.09
2022-10-01T10:47:12.705Z,100938.59
2022-10-01T10:50:05.476Z,100940.84
2022-10-01T10:52:54.877Z,100933.38
2022-10-01T10:55:56.845Z,100940.47
2022-10-01T10:58:51.052Z,100949.44
2022-10-01T11:01:43.469Z,100949.97
2022-10-01T11:04:43.590Z,100949.97
2022-10-01T11:07:34.623Z,100957.41
2022-10-01T11:10:32.446Z,100954.34
2022-10-01T11:14:00.614Z,100957.03
2022-10-01T11:17:28.599Z,100953.69
2022-10-01T11:20:31.426Z,100952.34
2022-10-01T11:23:52.567Z,100958.78
2022-10-01T11:27:08.148Z,100958.56
2022-10-01T11:30:16.629Z,100964.25
2022-10-01T11:33:25.291Z,100966.31
2022-10-01T11:36:25.939Z,100969.53
2022-10-01T11:39:19.455Z,100976.16
2022-10-01T11:42:13.161Z,100986.31
2022-10-01T11:45:26.281Z,100985.66
2022-10-01T11:48:25.880Z,100994.41
2022-10-01T11:51:36.119Z,100989.72
2022-10-01T11:54:28.436Z,100997.63
2022-10-01T11:57:36.720Z,101010.00
2022-10-01T12:00:27.482Z,101005.44
2022-10-01T12:03:23.052Z,101002.34
2022-10-01T12:06:15.842Z,101006.88
2022-10-01T12:09:09.336Z,101004.81
2022-10-01T12:12:08.067Z,101008.19
2022-10-01T12:15:14.820Z,101015.25
2022-10-01T12:18:15.198Z,101017.66
2022-10-01T12:21:09.216Z,101019.16
2022-10-01T12:24:08.415Z,101012.56
2022-10-01T12:27:03.588Z,101009.09
2022-10-01T12:30:07.068Z,101016.00
2022-10-01T12:33:22.295Z,101010.59
2022-10-01T12:36:18.456Z,101007.53
2022-10-01T12:39:36.588Z,101015.25
2022-10-01T12:42:50.846Z,101023.50
2022-10-01T12:45:59.014Z,101019.78
2022-10-01T12:49:13.175Z,101029.91
2022-10-01T12:52:09.660Z,101030.34
2022-10-01T12:55:20.835Z,101033.91
2022-10-01T12:58:20.891Z,101040.47
2022-10-01T13:01:55.603Z,101037.72
2022-10-01T13:05:11.537Z,101037.00
2022-10-01T13:08:39.589Z,101038.00
2022-10-01T13:12:01.459Z,101037.00
2022-10-01T13:14:55.414Z,101033.34
2022-10-01T13:18:09.553Z,101042.38
2022-10-01T13:21:19.778Z,101040.34
2022-10-01T13:24:20.117Z,101037.00
2022-10-01T13:27:16.848Z,101028.25
2022-10-01T13:30:29.415Z,101036.34
2022-10-01T13:33:27.307Z,101041.72
2022-10-01T13:36:23.490Z,101038.06
2022-10-01T13:39:23.759Z,101036.91
2022-10-01T13:42:28.920Z,101028.59
2022-10-01T13:45:41.339Z,101023.94
2022-10-01T13:48:36.701Z,101021.97
2022-10-01T13:51:36.571Z,101027.00
2022-10-01T13:54:48.539Z,101024.94
2022-10-01T13:57:40.190Z,101023.09
2022-10-01T14:00:33.534Z,101019.75
2022-10-01T14:04:01.006Z,101024.78
2022-10-01T14:07:04.424Z,101020.22
2022-10-01T14:09:59.319Z,101021.44
2022-10-01T14:13:07.294Z,101017.88
2022-10-01T14:16:00.897Z,101016.19
2022-10-01T14:18:52.769Z,101016.03
2022-10-01T14:22:04.935Z,101008.59
2022-10-01T14:25:23.398Z,101018.53
2022-10-01T14:28:33.942Z,101013.88
2022-10-01T14:32:04.604Z,101006.34
2022-10-01T14:35:20.533Z,100997.50
2022-10-01T14:38:24.099Z,100997.31
2022-10-01T14:41:21.872Z,100983.16
2022-10-01T14:44:41.659Z,100975.72
2022-10-01T14:47:37.024Z,100982.19
2022-10-01T14:50:27.306Z,100981.84
2022-10-01T14:53:40.460Z,100996.38
2022-10-01T14:56:30.794Z,101000.78
2022-10-01T14:59:34.571Z,101006.00
2022-10-01T15:02:26.860Z,101013.25
2022-10-01T15:05:30.433Z,101018.63
2022-10-01T15:08:24.868Z,101007.84
2022-10-01T15:11:18.503Z,101009.22
2022-10-01T15:14:11.797Z,101009.06
2022-10-01T15:17:07.428Z,101009.53
2022-10-01T15:20:01.121Z,101002.00
2022-10-01T15:23:01.059Z,100997.06
2022-10-01T15:25:51.591Z,100973.81
2022-10-01T15:28:42.184Z,100981.59
2022-10-01T15:31:35.065Z,100967.09
2022-10-01T15:34:26.753Z,100965.41
2022-10-01T15:37:35.369Z,100968.75
2022-10-01T15:40:30.726Z,100966.25
2022-10-01T15:43:35.522Z,100961.88
2022-10-01T15:46:36.281Z,100956.66
2022-10-01T15:49:28.564Z,100963.72
2022-10-01T15:52:36.948Z,100954.16
2022-10-01T15:55:40.007Z,100954.31
2022-10-01T15:58:40.113Z,100958.69
2022-10-01T16:01:32.975Z,100948.56
2022-10-01T16:04:23.354Z,100941.03
2022-10-01T16:07:28.239Z,100942.88
2022-10-01T16:10:41.828Z,100934.44
2022-10-01T16:13:41.076Z,100927.72
2022-10-01T16:16:32.379Z,100927.06
2022-10-01T16:19:33.085Z,100926.69
2022-10-01T16:22:26.995Z,100923.34
2022-10-01T16:25:25.929Z,100922.88
2022-10-01T16:28:44.137Z,100926.69
2022-10-01T16:31:38.321Z,100922.41
2022-10-01T16:34:29.690Z,100921.75
2022-10-01T16:37:20.664Z,100919.03
2022-10-01T16:40:16.320Z,100911.69
2022-10-01T16:43:06.097Z,100908.97
2022-10-01T16:45:57.375Z,100905.25
2022-10-01T16:48:49.533Z,100907.13
2022-10-01T16:51:41.298Z,100899.41
2022-10-01T16:54:31.348Z,100906.34
2022-10-01T16:57:24.372Z,100911.84
2022-10-01T17:00:20.275Z,100901.44
2022-10-01T17:03:16.075Z,100891.72
2022-10-01T17:06:07.417Z,100880.00
2022-10-01T17:09:02.678Z,100888.13
2022-10-01T17:11:53.315Z,100868.59
2022-10-01T17:14:43.746Z,100865.25
2022-10-01T17:17:36.689Z,100856.19
2022-10-01T17:20:28.821Z,100856.88
2022-10-01T17:23:20.785Z,100845.78
2022-10-01T17:26:10.698Z,100847.97
2022-10-01T17:29:00.933Z,100846.31
2022-10-01T17:31:54.162Z,100836.03
2022-10-01T17:34:44.158Z,100849.00
2022-10-01T17:37:34.780Z,100841.78
2022-10-01T17:40:26.157Z,100833.03
2022-10-01T17:43:17.653Z,100834.72
2022-10-01T17:46:07.926Z,100844.13
2022-10-01T17:49:03.446Z,100846.31
2022-10-01T17:51:57.011Z,100827.97
2022-10-01T17:54:47.465Z,100843.81
2022-10-01T17:57:39.201Z,100856.25
2022-10-01T18:00:28.737Z,100848.34
2022-10-01T18:03:21.059Z,100847.84
2022-10-01T18:06:14.808Z,100846.50
2022-10-01T18:09:07.087Z,100851.88
2022-10-01T18:11:56.420Z,100850.88
2022-10-01T18:14:46.276Z,100852.91
2022-10-01T18:17:36.830Z,100857.28
2022-10-01T18:20:27.162Z,100853.94
2022-10-01T18:23:17.191Z,100852.59
2022-10-01T18:26:07.429Z,100856.66
2022-10-01T18:29:02.945Z,100853.66
2022-10-01T18:32:01.490Z,100846.13
2022-10-01T18:35:03.004Z,100847.28
2022-10-01T18:37:58.459Z,100843.94
2022-10-01T18:40:56.069Z,100858.72
2022-10-01T18:43:48.202Z,100862.44
2022-10-01T18:46:46.705Z,100868.81
2022-10-01T18:49:48.471Z,100861.41
2022-10-01T18:53:13.673Z,100864.66
2022-10-01T18:56:30.403Z,100859.59
2022-10-01T18:59:29.242Z,100868.69
2022-10-01T19:02:23.825Z,100866.34
2022-10-01T19:05:44.234Z,100869.16
2022-10-01T19:08:51.960Z,100865.81
2022-10-01T19:11:58.880Z,100859.78
2022-10-01T19:14:58.738Z,100851.22
2022-10-01T19:18:03.872Z,100859.78
2022-10-01T19:20:55.684Z,100847.16
2022-10-01T19:24:06.676Z,100849.19
2022-10-01T19:27:19.296Z,100860.09
2022-10-01T19:30:17.142Z,100853.72
2022-10-01T19:33:15.850Z,100850.38
2022-10-01T19:36:07.763Z,100837.56
2022-10-01T19:39:02.013Z,100837.09
2022-10-01T19:42:02.751Z,100837.09
2022-10-01T19:45:04.756Z,100838.94
2022-10-01T19:47:56.689Z,100842.28
2022-10-01T19:50:51.440Z,100845.84
2022-10-01T19:53:46.129Z,100841.28
2022-10-01T19:56:39.484Z,100848.56
2022-10-01T19:59:29.937Z,100847.34
2022-10-01T20:02:36.314Z,100843.00
2022-10-01T20:05:44.810Z,100834.56
2022-10-01T20:08:42.304Z,100852.94
2022-10-01T20:11:47.132Z,100844.00
2022-10-01T20:15:15.563Z,100845.19
2022-10-01T20:18:27.129Z,100846.38
2022-10-01T20:21:27.566Z,100842.66
2022-10-01T20:24:59.784Z,100843.19
2022-10-01T20:28:10.461Z,100855.47
2022-10-01T20:31:21.117Z,100864.19
2022-10-01T20:34:34.381Z,100860.00
2022-10-01T20:37:38.459Z,100853.78
2022-10-01T20:40:30.758Z,100862.88
2022-10-01T20:43:36.133Z,100849.41
2022-10-01T20:46:44.299Z,100853.44
2022-10-01T20:50:09.416Z,100851.09
2022-10-01T20:53:17.166Z,100857.81
2022-10-01T20:56:22.873Z,100865.91
2022-10-01T20:59:26.857Z,100868.91
2022-10-01T21:02:19.993Z,100868.91
2022-10-01T21:05:14.964Z,100875.97
2022-10-01T21:08:33.527Z,100877.31
2022-10-01T21:11:39.127Z,100892.28
2022-10-01T21:14:34.390Z,100875.97
2022-10-01T21:17:27.177Z,100889.09
2022-10-01T21:20:31.765Z,100891.63
2022-10-01T21:23:56.278Z,100892.78
2022-10-01T21:26:56.953Z,100896.50
2022-10-01T21:29:59.035Z,100901.22
2022-10-01T21:33:01.880Z,100899.38
2022-10-01T21:35:55.779Z,100895.53
2022-10-01T21:39:16.129Z,100895.19
2022-10-01T21:42:16.156Z,100892.16
2022-10-01T21:45:14.028Z,100885.25
2022-10-01T21:48:26.197Z,100883.22
2022-10-01T21:51:32.920Z,100894.00
2022-10-01T21:54:51.258Z,100901.56
2022-10-01T21:57:54.438Z,100900.03
2022-10-01T22:00:57.458Z,100904.59
2022-10-01T22:04:10.599Z,100901.59
2022-10-01T22:07:18.369Z,100913.00
2022-10-01T22:10:12.470Z,100916.03
2022-10-01T22:13:07.933Z,100927.28
2022-10-01T22:16:03.119Z,100919.56
2022-10-01T22:18:58.179Z,100929.50
2022-10-01T22:21:49.945Z,100941.25
2022-10-01T22:24:50.574Z,100939.91
2022-10-01T22:27:49.595Z,100946.97
2022-10-01T22:30:41.283Z,100958.91
2022-10-01T22:33:39.199Z,100955.38
2022-10-01T22:36:43.085Z,100963.44
2022-10-01T22:39:41.205Z,100964.78
2022-10-01T22:42:44.124Z,100972.84
2022-10-01T22:46:10.364Z,100978.72
2022-10-01T22:49:27.657Z,100979.91
2022-10-01T22:52:30.083Z,100987.97
2022-10-01T22:55:38.821Z,100989.31
2022-10-01T22:58:50.162Z,100995.72
2022-10-01T23:01:54.023Z,100997.19
2022-10-01T23:05:08.418Z,101012.50
2022-10-01T23:07:59.670Z,101019.06
2022-10-01T23:11:02.416Z,101011.66
2022-10-01T23:14:03.965Z,101015.53
2022-10-01T23:17:17.879Z,101018.25
2022-10-01T23:20:30.441Z,101020.25
2022-10-01T23:23:33.187Z,101001.09
2022-10-01T23:26:42.800Z,100998.41
2022-10-01T23:29:35.660Z,101006.81
2022-10-01T23:32:49.856Z,101014.88
2022-10-01T23:36:09.011Z,101020.94
2022-10-01T23:39:35.236Z,101023.28
2022-10-01T23:42:48.097Z,101020.72
2022-10-01T23:45:42.293Z,101029.31
2022-10-01T23:48:50.312Z,101022.41
2022-10-01T23:52:12.365Z,101037.72
2022-10-01T23:55:28.376Z,101030.00
2022-10-01T23:58:17.909Z,101041.75
